createdAt,value
2018-12-23T00:00:16.961Z,9.37
2018-12-23T00:02:45.343Z,7.43
2018-12-23T00:05:15.154Z,8.03
2018-12-23T00:07:44.160Z,7.33
2018-12-23T00:10:12.527Z,6.37
2018-12-23T00:12:41.199Z,8.53
2018-12-23T00:15:09.797Z,7.20
2018-12-23T00:17:40.766Z,7.70
2018-12-23T00:20:09.664Z,7.80
2018-12-23T00:22:37.982Z,7.37
2018-12-23T00:25:06.846Z,7.70
2018-12-23T00:27:35.332Z,7.60
2018-12-23T00:30:03.734Z,7.57
2018-12-23T00:32:32.197Z,14.30
2018-12-23T00:35:01.525Z,9.37
2018-12-23T00:37:30.195Z,6.97
2018-12-23T00:39:58.916Z,7.00
2018-12-23T00:42:27.242Z,6.30
2018-12-23T00:44:55.583Z,7.33
2018-12-23T00:47:23.878Z,6.97
2018-12-23T00:49:53.117Z,8.27
2018-12-23T00:52:21.470Z,12.70
2018-12-23T00:54:49.833Z,9.40
2018-12-23T00:57:19.261Z,8.37
2018-12-23T00:59:47.846Z,8.60
2018-12-23T01:02:16.426Z,8.43
2018-12-23T01:04:44.821Z,8.07
2018-12-23T01:07:13.224Z,9.13
2018-12-23T01:09:41.751Z,8.30
2018-12-23T01:12:10.022Z,8.80
2018-12-23T01:14:38.324Z,24.97
2018-12-23T01:17:06.812Z,11.37
2018-12-23T01:19:35.283Z,9.13
2018-12-23T01:22:04.027Z,7.77
2018-12-23T01:24:32.537Z,9.07
2018-12-23T01:27:01.010Z,7.87
2018-12-23T01:29:29.411Z,7.20
2018-12-23T01:31:57.910Z,7.93
2018-12-23T01:34:26.217Z,7.63
2018-12-23T01:36:54.636Z,7.87
2018-12-23T01:39:24.015Z,7.77
2018-12-23T01:41:53.039Z,7.77
2018-12-23T01:44:21.395Z,8.40
2018-12-23T01:46:49.732Z,8.07
2018-12-23T01:49:19.635Z,8.80
2018-12-23T01:51:48.089Z,10.43
2018-12-23T01:54:16.398Z,8.00
2018-12-23T01:56:44.929Z,9.33
2018-12-23T01:59:13.246Z,8.77
2018-12-23T02:01:41.690Z,8.93
2018-12-23T02:04:10.024Z,8.27
2018-12-23T02:06:38.382Z,8.60
2018-12-23T02:09:06.893Z,8.17
2018-12-23T02:11:35.321Z,8.03
2018-12-23T02:14:03.778Z,8.67
2018-12-23T02:16:32.267Z,8.87
2018-12-23T02:19:00.841Z,9.13
2018-12-23T02:21:29.425Z,8.33
2018-12-23T02:23:57.709Z,9.17
2018-12-23T02:26:26.024Z,8.50
2018-12-23T02:28:54.432Z,8.87
2018-12-23T02:31:22.777Z,9.73
2018-12-23T02:33:51.183Z,9.43
2018-12-23T02:36:19.807Z,9.07
2018-12-23T02:38:51.532Z,9.93
2018-12-23T02:41:19.944Z,8.73
2018-12-23T02:43:48.127Z,9.43
2018-12-23T02:46:16.421Z,10.13
2018-12-23T02:48:44.885Z,10.10
2018-12-23T02:51:13.285Z,8.93
2018-12-23T02:53:41.681Z,8.77
2018-12-23T02:56:10.223Z,8.77
2018-12-23T02:58:38.631Z,10.47
2018-12-23T03:01:07.437Z,10.00
2018-12-23T03:03:36.104Z,9.50
2018-12-23T03:06:06.222Z,9.63
2018-12-23T03:08:34.952Z,9.33
2018-12-23T03:11:03.493Z,9.20
2018-12-23T03:13:31.865Z,9.87
2018-12-23T03:16:00.482Z,9.00
2018-12-23T03:18:28.914Z,9.67
2018-12-23T03:21:04.029Z,10.13
2018-12-23T03:23:32.383Z,8.83
2018-12-23T03:26:01.430Z,11.67
2018-12-23T03:28:29.706Z,10.40
2018-12-23T03:30:57.930Z,11.13
2018-12-23T03:33:26.292Z,10.60
2018-12-23T03:35:54.796Z,12.63
2018-12-23T03:38:23.114Z,11.00
2018-12-23T03:40:51.556Z,9.60
2018-12-23T03:43:20.014Z,11.43
2018-12-23T03:45:48.387Z,10.73
2018-12-23T03:48:16.839Z,9.93
2018-12-23T03:50:45.375Z,9.37
2018-12-23T03:53:13.936Z,9.97
2018-12-23T03:55:42.407Z,10.80
2018-12-23T03:58:10.949Z,10.77
2018-12-23T04:00:39.363Z,9.77
2018-12-23T04:03:07.604Z,9.10
2018-12-23T04:05:36.046Z,9.40
2018-12-23T04:08:04.277Z,8.13
2018-12-23T04:10:32.661Z,8.67
2018-12-23T04:13:01.013Z,8.20
2018-12-23T04:15:29.445Z,10.07
2018-12-23T04:17:57.830Z,9.07
2018-12-23T04:20:26.123Z,9.47
2018-12-23T04:22:54.554Z,9.37
2018-12-23T04:25:22.906Z,8.20
2018-12-23T04:27:51.451Z,7.87
2018-12-23T04:30:19.774Z,7.90
2018-12-23T04:32:48.170Z,8.63
2018-12-23T04:35:16.737Z,8.13
2018-12-23T04:37:45.105Z,7.13
2018-12-23T04:40:13.735Z,9.67
2018-12-23T04:42:42.071Z,8.27
2018-12-23T04:45:10.290Z,8.20
2018-12-23T04:47:38.719Z,8.23
2018-12-23T04:50:08.203Z,8.67
2018-12-23T04:52:36.563Z,7.90
2018-12-23T04:55:05.146Z,9.50
2018-12-23T04:57:34.083Z,7.63
2018-12-23T05:00:03.305Z,8.27
2018-12-23T05:02:31.611Z,8.27
2018-12-23T05:05:00.553Z,8.80
2018-12-23T05:07:28.918Z,8.10
2018-12-23T05:09:57.243Z,9.53
2018-12-23T05:12:25.673Z,8.03
2018-12-23T05:14:54.020Z,7.90
2018-12-23T05:17:22.475Z,10.10
2018-12-23T05:19:50.934Z,9.30
2018-12-23T05:22:20.304Z,8.50
2018-12-23T05:24:48.635Z,29.77
2018-12-23T05:27:16.857Z,27.80
2018-12-23T05:29:45.289Z,13.50
2018-12-23T05:32:13.907Z,10.60
2018-12-23T05:34:42.506Z,8.37
2018-12-23T05:37:10.883Z,9.50
2018-12-23T05:39:39.147Z,8.03
2018-12-23T05:42:07.439Z,8.30
2018-12-23T05:44:35.960Z,8.20
2018-12-23T05:47:04.260Z,8.37
2018-12-23T05:49:32.609Z,7.53
2018-12-23T05:52:01.048Z,7.93
2018-12-23T05:54:29.363Z,10.00
2018-12-23T05:56:57.671Z,8.67
2018-12-23T05:59:26.071Z,8.97
2018-12-23T06:01:54.483Z,8.90
2018-12-23T06:04:23.011Z,7.83
2018-12-23T06:07:01.041Z,9.33
2018-12-23T06:09:28.029Z,11.27
2018-12-23T06:11:56.685Z,8.60
2018-12-23T06:14:24.981Z,8.80
2018-12-23T06:16:53.433Z,9.47
2018-12-23T06:19:24.781Z,8.37
2018-12-23T06:21:53.105Z,9.30
2018-12-23T06:24:21.649Z,9.47
2018-12-23T06:26:50.778Z,9.87
2018-12-23T06:29:19.077Z,9.37
2018-12-23T06:31:47.528Z,10.40
2018-12-23T06:34:15.839Z,10.40
2018-12-23T06:36:44.279Z,8.57
2018-12-23T06:39:12.753Z,10.37
2018-12-23T06:41:41.157Z,9.93
2018-12-23T06:44:09.809Z,10.03
2018-12-23T06:46:38.301Z,11.07
2018-12-23T06:49:06.646Z,10.67
2018-12-23T06:51:34.951Z,9.97
2018-12-23T06:54:03.704Z,9.77
2018-12-23T06:56:32.030Z,9.37
2018-12-23T06:59:00.301Z,10.30
2018-12-23T07:01:28.663Z,10.23
2018-12-23T07:03:56.948Z,9.77
2018-12-23T07:09:00.061Z,12.43
2018-12-23T07:11:28.329Z,10.47
2018-12-23T07:13:56.610Z,10.93
2018-12-23T07:16:24.877Z,10.00
2018-12-23T07:18:53.162Z,9.97
2018-12-23T07:21:21.459Z,9.03
2018-12-23T07:23:49.794Z,8.50
2018-12-23T07:26:18.029Z,9.97
2018-12-23T07:28:46.909Z,10.20
2018-12-23T07:31:15.225Z,9.00
2018-12-23T07:33:43.758Z,9.40
2018-12-23T07:36:12.485Z,12.50
2018-12-23T07:38:40.909Z,14.50
2018-12-23T07:41:09.193Z,19.53
2018-12-23T07:43:37.772Z,16.90
2018-12-23T07:46:06.455Z,15.27
2018-12-23T07:48:35.374Z,13.37
2018-12-23T07:51:03.741Z,13.30
2018-12-23T07:53:32.110Z,17.53
2018-12-23T07:56:00.551Z,12.53
2018-12-23T07:58:28.839Z,9.23
2018-12-23T08:00:57.657Z,11.07
2018-12-23T08:03:25.931Z,9.77
2018-12-23T08:05:54.219Z,7.67
2018-12-23T08:08:22.754Z,8.93
2018-12-23T08:10:51.100Z,8.90
2018-12-23T08:13:19.467Z,9.97
2018-12-23T08:15:47.765Z,12.23
2018-12-23T08:18:16.091Z,9.77
2018-12-23T08:20:44.555Z,9.97
2018-12-23T08:23:12.807Z,8.83
2018-12-23T08:25:41.125Z,8.00
2018-12-23T08:28:09.517Z,8.43
2018-12-23T08:30:37.953Z,8.27
2018-12-23T08:33:06.349Z,8.13
2018-12-23T08:35:34.981Z,9.43
2018-12-23T08:38:03.406Z,8.30
2018-12-23T08:40:32.469Z,17.10
2018-12-23T08:43:00.921Z,13.27
2018-12-23T08:45:29.329Z,12.83
2018-12-23T08:47:57.939Z,6.90
2018-12-23T08:50:28.238Z,11.67
2018-12-23T08:52:56.564Z,6.83
2018-12-23T08:55:24.909Z,8.40
2018-12-23T08:57:53.293Z,8.27
2018-12-23T09:00:21.733Z,7.33
2018-12-23T09:02:50.142Z,7.30
2018-12-23T09:05:18.419Z,8.47
2018-12-23T09:07:52.948Z,8.63
2018-12-23T09:10:17.284Z,9.97
2018-12-23T09:12:45.556Z,12.13
2018-12-23T09:15:13.952Z,7.67
2018-12-23T09:17:43.580Z,8.70
2018-12-23T09:20:11.948Z,7.63
2018-12-23T09:22:40.277Z,7.53
2018-12-23T09:25:08.597Z,8.03
2018-12-23T09:27:36.862Z,7.30
2018-12-23T09:30:06.570Z,10.03
2018-12-23T09:32:35.147Z,7.93
2018-12-23T09:35:03.632Z,8.43
2018-12-23T09:37:32.130Z,7.10
2018-12-23T09:40:00.638Z,9.00
2018-12-23T09:42:29.481Z,7.13
2018-12-23T09:44:58.644Z,8.33
2018-12-23T09:47:27.009Z,7.73
2018-12-23T09:49:55.368Z,8.07
2018-12-23T09:52:23.953Z,8.63
2018-12-23T09:54:52.735Z,6.67
2018-12-23T09:57:21.090Z,7.07
2018-12-23T09:59:49.460Z,8.77
2018-12-23T10:02:17.973Z,7.23
2018-12-23T10:04:46.438Z,7.63
2018-12-23T10:07:14.852Z,6.63
2018-12-23T10:09:43.335Z,6.93
2018-12-23T10:12:11.658Z,7.17
2018-12-23T10:14:40.142Z,5.60
2018-12-23T10:17:08.520Z,6.93
2018-12-23T10:19:36.921Z,8.70
2018-12-23T10:22:05.216Z,8.73
2018-12-23T10:24:33.490Z,8.90
2018-12-23T10:27:02.114Z,9.43
2018-12-23T10:29:30.589Z,8.83
2018-12-23T10:31:58.940Z,5.77
2018-12-23T10:34:27.293Z,10.67
2018-12-23T10:36:55.562Z,7.33
2018-12-23T10:39:24.057Z,8.80
2018-12-23T10:41:52.514Z,8.30
2018-12-23T10:44:20.891Z,6.90
2018-12-23T10:46:49.178Z,9.87
2018-12-23T10:49:17.487Z,6.17
2018-12-23T10:51:45.867Z,6.33
2018-12-23T10:54:14.144Z,5.30
2018-12-23T10:56:42.892Z,6.83
2018-12-23T10:59:11.569Z,8.73
2018-12-23T11:01:40.498Z,8.97
2018-12-23T11:04:09.198Z,9.10
2018-12-23T11:06:37.610Z,6.10
2018-12-23T11:09:06.832Z,6.20
2018-12-23T11:11:35.116Z,5.63
2018-12-23T11:14:03.612Z,8.77
2018-12-23T11:16:32.718Z,6.77
2018-12-23T11:19:01.177Z,8.37
2018-12-23T11:21:29.778Z,8.13
2018-12-23T11:23:58.490Z,7.17
2018-12-23T11:26:26.843Z,7.60
2018-12-23T11:28:55.249Z,9.17
2018-12-23T11:31:25.012Z,7.93
2018-12-23T11:33:54.660Z,7.37
2018-12-23T11:36:23.242Z,7.87
2018-12-23T11:38:51.558Z,7.60
2018-12-23T11:41:20.102Z,10.00
2018-12-23T11:43:49.054Z,7.53
2018-12-23T11:46:18.249Z,9.90
2018-12-23T11:48:46.737Z,10.77
2018-12-23T11:51:15.517Z,7.37
2018-12-23T11:53:43.938Z,9.37
2018-12-23T11:56:12.453Z,11.03
2018-12-23T11:58:40.771Z,9.03
2018-12-23T12:01:09.031Z,13.90
2018-12-23T12:03:37.466Z,9.10
2018-12-23T12:06:05.973Z,7.77
2018-12-23T12:08:34.414Z,7.67
2018-12-23T12:11:02.920Z,7.17
2018-12-23T12:13:31.300Z,8.40
2018-12-23T12:15:59.756Z,9.10
2018-12-23T12:18:28.092Z,6.90
2018-12-23T12:20:56.479Z,7.83
2018-12-23T12:23:24.850Z,7.30
2018-12-23T12:25:53.187Z,12.70
2018-12-23T12:28:21.644Z,9.43
2018-12-23T12:30:50.054Z,10.57
2018-12-23T12:33:18.615Z,8.50
2018-12-23T12:35:47.283Z,10.53
2018-12-23T12:38:15.828Z,9.43
2018-12-23T12:40:45.166Z,10.97
2018-12-23T12:43:13.832Z,8.97
2018-12-23T12:45:42.437Z,10.87
2018-12-23T12:48:10.802Z,10.10
2018-12-23T12:50:39.399Z,8.57
2018-12-23T12:53:07.875Z,7.97
2018-12-23T12:55:36.157Z,9.13
2018-12-23T12:58:14.418Z,12.13
2018-12-23T13:00:42.821Z,8.57
2018-12-23T13:03:11.452Z,13.30
2018-12-23T13:05:39.935Z,6.47
2018-12-23T13:08:11.084Z,7.70
2018-12-23T13:10:39.590Z,8.10
2018-12-23T13:13:08.936Z,10.60
2018-12-23T13:15:37.422Z,12.13
2018-12-23T13:18:05.867Z,11.23
2018-12-23T13:20:34.332Z,13.03
2018-12-23T13:23:02.766Z,8.90
2018-12-23T13:25:31.196Z,8.63
2018-12-23T13:27:59.601Z,14.07
2018-12-23T13:30:27.919Z,13.20
2018-12-23T13:32:56.562Z,8.73
2018-12-23T13:35:24.917Z,10.53
2018-12-23T13:37:53.266Z,13.73
2018-12-23T13:40:30.783Z,12.57
2018-12-23T13:43:15.475Z,11.03
2018-12-23T13:46:06.989Z,10.87
2018-12-23T13:50:57.403Z,10.70
2018-12-23T13:53:37.175Z,12.13
2018-12-23T13:56:17.529Z,9.83
2018-12-23T13:58:55.743Z,13.73
2018-12-23T14:01:38.873Z,13.60
2018-12-23T14:04:29.699Z,13.70
2018-12-23T14:07:09.590Z,13.00
2018-12-23T14:09:50.638Z,14.17
2018-12-23T14:12:19.001Z,15.43
2018-12-23T14:14:47.418Z,13.47
2018-12-23T14:17:15.762Z,17.20
2018-12-23T14:19:44.144Z,17.30
2018-12-23T14:22:12.688Z,16.30
2018-12-23T14:24:41.680Z,17.27
2018-12-23T14:27:11.135Z,17.93
2018-12-23T14:29:39.642Z,13.33
2018-12-23T14:32:07.936Z,13.20
2018-12-23T14:34:36.276Z,13.37
2018-12-23T14:37:04.848Z,15.53
2018-12-23T14:39:33.367Z,13.60
2018-12-23T14:42:01.738Z,14.97
2018-12-23T14:44:30.248Z,13.63
2018-12-23T14:46:58.910Z,11.60
2018-12-23T14:49:27.399Z,11.90
2018-12-23T14:51:55.778Z,7.07
2018-12-23T14:54:24.097Z,9.70
2018-12-23T14:56:52.467Z,10.17
2018-12-23T14:59:21.020Z,5.80
2018-12-23T15:01:49.441Z,5.03
2018-12-23T15:04:17.763Z,5.80
2018-12-23T15:06:46.486Z,6.43
2018-12-23T15:09:15.388Z,6.63
2018-12-23T15:11:44.061Z,5.30
2018-12-23T15:14:12.506Z,5.13
2018-12-23T15:16:41.083Z,6.20
2018-12-23T15:19:09.986Z,9.37
2018-12-23T15:21:38.507Z,10.37
2018-12-23T15:24:06.929Z,9.00
2018-12-23T15:26:35.439Z,11.13
2018-12-23T15:29:03.994Z,12.17
2018-12-23T15:31:32.615Z,12.63
2018-12-23T15:34:01.167Z,13.17
2018-12-23T15:36:29.665Z,15.07
2018-12-23T15:38:58.241Z,12.67
2018-12-23T15:41:26.717Z,15.03
2018-12-23T15:43:55.700Z,16.30
2018-12-23T15:46:24.137Z,15.40
2018-12-23T15:48:52.779Z,13.97
2018-12-23T15:51:21.549Z,16.50
2018-12-23T15:53:50.065Z,13.63
2018-12-23T15:56:18.699Z,15.30
2018-12-23T15:58:47.115Z,12.50
2018-12-23T16:01:15.455Z,12.33
2018-12-23T16:03:44.132Z,11.30
2018-12-23T16:06:12.556Z,12.43
2018-12-23T16:08:40.897Z,10.33
2018-12-23T16:11:09.317Z,9.73
2018-12-23T16:13:37.861Z,9.40
2018-12-23T16:16:06.284Z,8.67
2018-12-23T16:18:34.860Z,7.73
2018-12-23T16:21:04.225Z,8.90
2018-12-23T16:23:32.488Z,10.87
2018-12-23T16:26:02.604Z,7.10
2018-12-23T16:28:31.185Z,10.80
2018-12-23T16:30:59.631Z,8.30
2018-12-23T16:33:28.269Z,10.73
2018-12-23T16:35:57.359Z,10.77
2018-12-23T16:38:25.814Z,13.97
2018-12-23T16:40:54.161Z,12.20
2018-12-23T16:43:22.507Z,10.60
2018-12-23T16:45:50.917Z,9.87
2018-12-23T16:48:19.400Z,13.83
2018-12-23T16:50:48.385Z,13.00
2018-12-23T16:53:16.787Z,11.40
2018-12-23T16:55:45.477Z,10.03
2018-12-23T16:58:13.799Z,10.63
2018-12-23T17:00:42.313Z,14.83
2018-12-23T17:03:10.960Z,14.60
2018-12-23T17:05:39.501Z,13.57
2018-12-23T17:08:08.136Z,13.33
2018-12-23T17:10:36.437Z,12.40
2018-12-23T17:13:04.905Z,11.57
2018-12-23T17:15:33.690Z,15.03
2018-12-23T17:18:02.256Z,15.40
2018-12-23T17:20:30.582Z,14.77
2018-12-23T17:22:59.176Z,15.53
2018-12-23T17:25:27.499Z,14.50
2018-12-23T17:27:55.853Z,14.13
2018-12-23T17:30:24.257Z,15.67
2018-12-23T17:32:52.775Z,13.83
2018-12-23T17:35:21.267Z,11.13
2018-12-23T17:37:49.572Z,13.70
2018-12-23T17:40:18.081Z,18.10
2018-12-23T17:42:46.392Z,15.57
2018-12-23T17:45:15.082Z,13.00
2018-12-23T17:47:43.564Z,15.10
2018-12-23T17:50:12.759Z,12.20
2018-12-23T17:52:41.013Z,12.53
2018-12-23T17:55:09.457Z,12.63
2018-12-23T17:57:37.793Z,11.73
2018-12-23T18:00:06.711Z,13.47
2018-12-23T18:02:35.984Z,12.80
2018-12-23T18:22:48.495Z,17.30
2018-12-23T18:25:16.852Z,12.40
2018-12-23T18:27:45.180Z,15.93
2018-12-23T18:30:13.639Z,13.10
2018-12-23T18:32:42.097Z,14.70
2018-12-23T18:35:10.530Z,13.40
2018-12-23T18:37:38.961Z,13.57
2018-12-23T18:40:07.500Z,14.63
2018-12-23T18:42:35.858Z,13.50
2018-12-23T18:45:04.548Z,14.53
2018-12-23T18:47:32.987Z,11.63
2018-12-23T18:50:01.366Z,13.97
2018-12-23T18:52:29.694Z,13.80
2018-12-23T18:54:57.973Z,14.20
2018-12-23T18:57:28.369Z,16.53
2018-12-23T18:59:56.873Z,14.50
2018-12-23T19:02:34.221Z,14.87
2018-12-23T19:05:02.857Z,19.17
2018-12-23T19:07:31.132Z,19.77
2018-12-23T19:10:43.944Z,14.27
2018-12-23T19:13:29.555Z,19.67
2018-12-23T19:16:15.765Z,16.40
2018-12-23T19:18:54.029Z,14.37
2018-12-23T19:22:38.438Z,15.90
2018-12-23T19:25:29.995Z,12.20
2018-12-23T19:28:10.427Z,17.20
2018-12-23T19:30:55.124Z,14.57
2018-12-23T19:34:05.884Z,14.70
2018-12-23T19:36:46.090Z,16.37
2018-12-23T19:39:37.846Z,15.60
2018-12-23T19:44:21.280Z,13.77
2018-12-23T19:46:59.859Z,12.77
2018-12-23T19:51:42.227Z,14.73
2018-12-23T19:56:28.620Z,13.33
2018-12-23T19:59:08.290Z,14.90
2018-12-23T20:03:53.956Z,13.37
2018-12-23T20:06:42.186Z,14.67
2018-12-23T20:09:21.357Z,16.90
2018-12-23T20:15:10.202Z,13.63
2018-12-23T20:22:02.859Z,13.07
2018-12-23T20:24:42.783Z,15.53
2018-12-23T20:28:20.397Z,15.90
2018-12-23T20:31:02.405Z,17.83
2018-12-23T20:35:47.094Z,13.23
2018-12-23T20:40:32.195Z,14.07
2018-12-23T20:43:08.942Z,14.50
2018-12-23T20:45:48.517Z,14.20
2018-12-23T20:48:30.427Z,13.97
2018-12-23T20:51:10.205Z,11.47
2018-12-23T20:54:22.723Z,13.03
2018-12-23T20:58:39.327Z,15.70
2018-12-23T21:01:19.387Z,15.27
2018-12-23T21:03:58.767Z,15.70
2018-12-23T21:06:56.266Z,16.43
2018-12-23T21:10:40.608Z,12.03
2018-12-23T21:13:25.633Z,14.37
2018-12-23T21:16:08.633Z,12.80
2018-12-23T21:40:26.322Z,14.67
2018-12-23T21:43:28.356Z,15.50
2018-12-23T21:46:25.913Z,16.47
2018-12-23T21:51:05.699Z,13.53
2018-12-23T21:53:52.608Z,14.03
2018-12-23T21:56:39.760Z,16.10
2018-12-23T21:59:31.463Z,14.77
2018-12-23T22:02:16.071Z,13.23
2018-12-23T22:05:12.368Z,13.37
2018-12-23T22:07:53.433Z,16.00
2018-12-23T22:10:37.752Z,13.67
2018-12-23T22:13:18.875Z,14.17
2018-12-23T22:15:47.467Z,12.10
2018-12-23T22:18:16.096Z,13.60
2018-12-23T22:20:44.612Z,10.97
2018-12-23T22:23:12.950Z,13.23
2018-12-23T22:25:41.308Z,14.83
2018-12-23T22:28:09.694Z,13.37
2018-12-23T22:30:38.161Z,34.57
2018-12-23T22:33:06.691Z,17.63
2018-12-23T22:35:35.169Z,17.50
2018-12-23T22:38:03.670Z,14.40
2018-12-23T22:40:33.461Z,13.30
2018-12-23T22:43:13.684Z,13.27
2018-12-23T22:45:42.162Z,15.13
2018-12-23T22:48:11.727Z,13.07
2018-12-23T22:50:40.901Z,12.63
2018-12-23T22:53:09.818Z,13.50
2018-12-23T22:55:38.379Z,13.90
2018-12-23T22:58:06.824Z,14.20
2018-12-23T23:00:35.900Z,13.93
2018-12-23T23:03:08.998Z,11.73
2018-12-23T23:05:34.830Z,13.80
2018-12-23T23:08:04.052Z,13.10
2018-12-23T23:10:33.406Z,12.20
2018-12-23T23:13:02.147Z,10.70
2018-12-23T23:15:30.759Z,11.63
2018-12-23T23:18:00.030Z,15.80
2018-12-23T23:20:29.132Z,9.37
2018-12-23T23:22:58.796Z,9.93
2018-12-23T23:25:27.136Z,9.70
2018-12-23T23:27:55.514Z,9.10
2018-12-23T23:30:23.922Z,10.60
2018-12-23T23:32:52.463Z,8.87
2018-12-23T23:35:20.858Z,8.37
2018-12-23T23:37:49.276Z,9.67
2018-12-23T23:40:17.725Z,9.03
2018-12-23T23:42:47.069Z,9.50
2018-12-23T23:45:15.508Z,8.73
2018-12-23T23:47:44.392Z,8.40
2018-12-23T23:50:12.972Z,7.33
2018-12-23T23:52:46.755Z,5.77
2018-12-23T23:55:15.472Z,8.47
2018-12-23T23:57:43.859Z,7.83
